Time;durP1;ratioP1;P1;durP2;ratioP2;P2;SDS_P1;SDS_P2;PMS_P1;PMS_P2;Temp;Humidity;BMP_temperature;BMP_pressure;BME280_temperature;BME280_humidity;BME280_pressure;Samples;Min_cycle;Max_cycle;Signal;HPM_P1;HPM_P2
2023/11/20 00:02:15;;;;;;;26.90;5.60;;;11.80;95.30;;;;;;5021737;28;20045;-76
2023/11/20 00:04:41;;;;;;;26.70;4.72;;;11.80;95.30;;;;;;5020056;28;20037;-75
2023/11/20 00:07:06;;;;;;;25.10;5.57;;;11.70;95.30;;;;;;5022585;28;20042;-75
2023/11/20 00:09:32;;;;;;;28.73;5.55;;;11.70;95.40;;;;;;5020701;28;20032;-74
2023/11/20 00:11:58;;;;;;;28.27;6.30;;;11.70;95.50;;;;;;5019906;28;20133;-76
2023/11/20 00:14:24;;;;;;;25.08;5.75;;;11.70;95.50;;;;;;5021697;28;20037;-74
2023/11/20 00:16:50;;;;;;;17.60;4.22;;;11.60;95.50;;;;;;5021604;28;20041;-75
2023/11/20 00:19:17;;;;;;;26.98;5.00;;;11.60;95.60;;;;;;5021583;28;20021;-76
2023/11/20 00:21:42;;;;;;;22.73;5.10;;;11.60;95.70;;;;;;5018260;28;20026;-76
2023/11/20 00:24:09;;;;;;;32.20;6.30;;;11.60;95.70;;;;;;5023356;28;20364;-75
2023/11/20 00:26:35;;;;;;;23.33;5.10;;;11.60;95.80;;;;;;5023556;28;20049;-76
2023/11/20 00:29:01;;;;;;;29.15;5.35;;;11.50;95.80;;;;;;5022349;28;20049;-75
2023/11/20 00:31:27;;;;;;;28.02;5.78;;;11.50;95.90;;;;;;5020993;28;20029;-75
2023/11/20 00:33:53;;;;;;;22.75;5.43;;;11.50;96.00;;;;;;5022423;28;20029;-74
2023/11/20 00:36:19;;;;;;;24.00;5.43;;;11.50;96.20;;;;;;5022800;28;20085;-75
2023/11/20 00:38:48;;;;;;;31.98;6.47;;;11.50;96.10;;;;;;5021076;28;20052;-75
2023/11/20 00:41:14;;;;;;;28.38;5.75;;;11.50;96.20;;;;;;5021922;28;20383;-75
2023/11/20 00:43:40;;;;;;;25.95;5.47;;;11.60;96.20;;;;;;5021148;28;20041;-75
2023/11/20 00:46:06;;;;;;;30.85;5.60;;;11.60;96.30;;;;;;5023871;28;20370;-74
2023/11/20 00:48:32;;;;;;;26.92;5.57;;;11.60;96.30;;;;;;5022339;28;20064;-74
2023/11/20 00:50:58;;;;;;;27.25;5.15;;;11.70;96.20;;;;;;5024019;28;20062;-74
2023/11/20 00:53:23;;;;;;;24.20;5.05;;;11.70;96.20;;;;;;5020714;28;20032;-75
2023/11/20 00:55:52;;;;;;;30.75;5.03;;;11.80;96.30;;;;;;5020843;28;20562;-75
2023/11/20 00:58:18;;;;;;;21.92;4.25;;;11.80;96.40;;;;;;5022234;28;20080;-75
2023/11/20 01:00:43;;;;;;;26.67;5.40;;;11.80;96.40;;;;;;5022219;28;20614;-75
2023/11/20 01:03:09;;;;;;;26.67;4.88;;;11.90;96.40;;;;;;5020590;28;21833;-75
2023/11/20 01:05:35;;;;;;;30.63;5.35;;;11.90;96.50;;;;;;5023945;28;20029;-75
2023/11/20 01:08:00;;;;;;;26.42;4.70;;;11.90;96.50;;;;;;5019379;28;20056;-75
2023/11/20 01:10:26;;;;;;;29.33;5.13;;;11.90;96.60;;;;;;5024555;28;20052;-74
2023/11/20 01:12:52;;;;;;;25.50;5.20;;;11.80;96.70;;;;;;5021299;28;20071;-75
2023/11/20 01:15:17;;;;;;;24.40;5.05;;;11.80;96.70;;;;;;5020296;28;20056;-75
2023/11/20 01:17:43;;;;;;;21.48;4.53;;;11.90;96.70;;;;;;5023191;28;20028;-75
2023/11/20 01:20:12;;;;;;;23.67;4.97;;;11.80;96.60;;;;;;5021529;28;20095;-76
2023/11/20 01:22:38;;;;;;;23.75;4.70;;;11.90;96.60;;;;;;5023355;28;20029;-75
2023/11/20 01:25:04;;;;;;;21.92;4.78;;;11.80;96.50;;;;;;5028049;28;20393;-75
2023/11/20 01:27:29;;;;;;;22.90;5.07;;;11.80;96.50;;;;;;5025470;28;20135;-75
2023/11/20 01:29:55;;;;;;;21.85;4.78;;;11.90;96.50;;;;;;5027646;28;20037;-75
2023/11/20 01:32:21;;;;;;;19.38;4.90;;;11.80;96.40;;;;;;5025511;28;20060;-75
2023/11/20 01:34:47;;;;;;;25.48;4.88;;;11.80;96.30;;;;;;5027367;28;20068;-75
2023/11/20 01:37:12;;;;;;;22.55;5.18;;;11.80;96.30;;;;;;5025903;28;20057;-74
2023/11/20 01:39:38;;;;;;;22.40;4.70;;;11.80;96.10;;;;;;5026735;28;20029;-75
2023/11/20 01:42:05;;;;;;;27.90;5.20;;;11.70;96.00;;;;;;5025088;28;20110;-74
2023/11/20 01:44:30;;;;;;;24.65;4.55;;;11.60;95.80;;;;;;5042033;28;20094;-76
2023/11/20 01:46:57;;;;;;;18.80;3.80;;;11.60;95.60;;;;;;5039494;28;20042;-76
2023/11/20 01:49:24;;;;;;;20.60;4.68;;;11.60;95.30;;;;;;5027017;28;20028;-75
2023/11/20 01:51:49;;;;;;;18.35;3.92;;;11.50;94.80;;;;;;5024594;28;20037;-75
2023/11/20 01:54:16;;;;;;;20.05;4.60;;;11.50;94.50;;;;;;5026564;28;20095;-75
2023/11/20 01:56:43;;;;;;;19.58;4.32;;;11.40;94.40;;;;;;5016578;28;20045;-75
2023/11/20 01:59:09;;;;;;;23.92;4.45;;;11.40;94.10;;;;;;5026695;28;20033;-75
2023/11/20 02:01:35;;;;;;;21.55;4.00;;;11.40;93.90;;;;;;5023579;28;20083;-74
2023/11/20 02:04:03;;;;;;;19.13;4.15;;;11.40;93.80;;;;;;5022859;28;20433;-75
2023/11/20 02:06:29;;;;;;;16.42;3.33;;;11.30;93.50;;;;;;5024490;28;20045;-75
2023/11/20 02:08:55;;;;;;;18.85;4.13;;;11.30;93.50;;;;;;5033680;28;20036;-75
2023/11/20 02:11:21;;;;;;;21.33;4.68;;;11.20;93.30;;;;;;5042967;28;20596;-74
2023/11/20 02:13:50;;;;;;;20.25;4.07;;;11.30;93.30;;;;;;5045634;28;20466;-75
2023/11/20 02:16:16;;;;;;;19.42;4.13;;;11.30;93.30;;;;;;5030539;28;20131;-74
2023/11/20 02:18:41;;;;;;;20.08;3.80;;;11.20;93.20;;;;;;5026584;28;20409;-74
2023/11/20 02:21:08;;;;;;;21.20;4.55;;;11.30;93.20;;;;;;5024566;28;20037;-75
2023/11/20 02:23:33;;;;;;;23.98;4.95;;;11.20;93.00;;;;;;5026109;28;20112;-75
2023/11/20 02:26:33;;;;;;;23.15;5.43;;;11.20;92.90;;;;;;5025668;28;20540;-75
2023/11/20 02:29:13;;;;;;;18.45;4.30;;;11.20;92.90;;;;;;5019611;28;20056;-74
2023/11/20 02:31:41;;;;;;;23.90;4.43;;;11.20;92.90;;;;;;5023176;28;20038;-74
2023/11/20 02:34:07;;;;;;;17.60;4.25;;;11.20;92.90;;;;;;5025603;28;20026;-74
2023/11/20 02:36:33;;;;;;;17.55;3.70;;;11.20;93.00;;;;;;5017504;28;20029;-75
2023/11/20 02:38:59;;;;;;;21.52;3.88;;;11.10;93.20;;;;;;5040631;28;20371;-74
2023/11/20 02:41:25;;;;;;;17.20;3.35;;;11.20;93.20;;;;;;5023667;28;20056;-75
2023/11/20 02:43:51;;;;;;;22.38;4.13;;;11.20;93.30;;;;;;5021363;28;20021;-74
2023/11/20 02:46:17;;;;;;;17.65;4.00;;;11.20;93.30;;;;;;5023833;28;20702;-75
2023/11/20 02:48:43;;;;;;;21.20;4.55;;;11.20;93.30;;;;;;5025398;28;20709;-74
2023/11/20 02:51:09;;;;;;;19.52;4.75;;;11.10;93.30;;;;;;5024498;28;20030;-75
2023/11/20 02:53:35;;;;;;;21.35;4.65;;;11.10;93.50;;;;;;5023917;28;20042;-74
2023/11/20 02:56:00;;;;;;;20.70;5.03;;;11.10;93.70;;;;;;5020931;28;20180;-75
2023/11/20 02:58:26;;;;;;;19.92;4.05;;;11.00;93.80;;;;;;5022789;28;20057;-75
2023/11/20 03:00:53;;;;;;;20.30;3.75;;;10.80;93.90;;;;;;5023727;28;20064;-74
2023/11/20 03:03:19;;;;;;;17.60;3.70;;;10.80;94.00;;;;;;5026820;28;20033;-75
2023/11/20 03:05:45;;;;;;;24.88;4.20;;;10.70;94.20;;;;;;5024844;28;20402;-74
2023/11/20 03:08:11;;;;;;;25.30;4.20;;;10.70;94.30;;;;;;5022815;28;20048;-75
2023/11/20 03:10:38;;;;;;;20.30;4.57;;;10.60;94.50;;;;;;5026673;28;20497;-74
2023/11/20 03:13:04;;;;;;;16.75;4.07;;;10.60;94.60;;;;;;5023613;28;20386;-75
2023/11/20 03:15:30;;;;;;;25.95;4.78;;;10.60;94.70;;;;;;5023440;28;20038;-74
2023/11/20 03:17:55;;;;;;;20.95;4.50;;;10.60;94.90;;;;;;5020861;28;20499;-74
2023/11/20 03:20:21;;;;;;;21.05;4.88;;;10.50;94.90;;;;;;5024559;28;20060;-74
2023/11/20 03:22:47;;;;;;;28.77;4.78;;;10.50;95.00;;;;;;5023543;28;20033;-74
2023/11/20 03:25:13;;;;;;;22.10;4.63;;;10.50;95.10;;;;;;5021427;28;20040;-75
2023/11/20 03:27:40;;;;;;;25.95;5.05;;;10.40;95.20;;;;;;5019445;28;20036;-74
2023/11/20 03:30:06;;;;;;;21.48;4.68;;;10.40;95.30;;;;;;5022302;28;20056;-75
2023/11/20 03:32:32;;;;;;;20.00;4.20;;;10.30;95.30;;;;;;5023938;28;20029;-74
2023/11/20 03:34:58;;;;;;;23.73;4.75;;;10.30;95.40;;;;;;5024676;28;20546;-75
2023/11/20 03:37:24;;;;;;;26.15;4.40;;;10.30;95.40;;;;;;5018475;28;20148;-76
2023/11/20 03:39:49;;;;;;;19.42;4.85;;;10.30;95.60;;;;;;5023874;28;20042;-75
2023/11/20 03:42:15;;;;;;;25.83;4.88;;;10.20;95.70;;;;;;5022955;28;20523;-75
2023/11/20 03:44:41;;;;;;;30.85;5.38;;;10.20;95.80;;;;;;5019260;28;20029;-74
2023/11/20 03:47:06;;;;;;;19.67;4.75;;;10.20;95.80;;;;;;5023067;28;20529;-75
2023/11/20 03:49:32;;;;;;;23.23;4.57;;;10.20;95.90;;;;;;5020872;28;20037;-73
2023/11/20 03:51:57;;;;;;;28.30;5.55;;;10.20;95.80;;;;;;5022338;28;20033;-73
2023/11/20 03:54:23;;;;;;;22.20;5.10;;;10.10;95.90;;;;;;5018526;28;20044;-76
2023/11/20 03:56:49;;;;;;;26.98;4.47;;;10.10;95.90;;;;;;5016181;28;20076;-77
2023/11/20 03:59:15;;;;;;;19.25;3.75;;;10.10;95.90;;;;;;5023400;28;20062;-74
2023/11/20 04:01:41;;;;;;;24.15;4.82;;;10.10;96.00;;;;;;5020308;28;20622;-76
2023/11/20 04:04:08;;;;;;;24.05;4.50;;;10.10;96.20;;;;;;5022199;28;20029;-76
2023/11/20 04:06:34;;;;;;;20.05;4.70;;;10.10;96.20;;;;;;5020353;28;20091;-75
2023/11/20 04:09:00;;;;;;;24.48;5.00;;;10.10;96.20;;;;;;5023463;28;20470;-76
2023/11/20 04:11:25;;;;;;;22.48;5.53;;;10.10;96.40;;;;;;5020382;28;20032;-76
2023/11/20 04:13:51;;;;;;;22.50;4.63;;;10.10;96.30;;;;;;5022875;28;20100;-76
2023/11/20 04:16:17;;;;;;;27.20;5.28;;;10.00;96.20;;;;;;5021602;28;20041;-76
2023/11/20 04:18:45;;;;;;;22.63;4.35;;;10.00;96.20;;;;;;5025787;28;20021;-76
2023/11/20 04:21:11;;;;;;;23.20;4.68;;;10.00;96.30;;;;;;5017435;28;20442;-76
2023/11/20 04:23:37;;;;;;;24.10;5.20;;;10.00;96.30;;;;;;5021576;28;20634;-76
2023/11/20 04:26:02;;;;;;;29.77;5.35;;;9.90;96.40;;;;;;5022074;28;20037;-76
2023/11/20 04:28:30;;;;;;;26.67;5.97;;;10.00;96.30;;;;;;5023482;28;20056;-76
2023/11/20 04:30:58;;;;;;;25.05;4.63;;;9.90;96.30;;;;;;5019838;28;20041;-76
2023/11/20 04:33:25;;;;;;;27.52;4.40;;;10.00;96.30;;;;;;5022335;28;20025;-75
2023/11/20 04:35:51;;;;;;;26.77;5.50;;;9.90;96.20;;;;;;5018312;28;20068;-75
2023/11/20 04:38:17;;;;;;;25.67;5.63;;;9.90;96.10;;;;;;5038311;28;20065;-76
2023/11/20 04:40:42;;;;;;;22.75;5.35;;;9.90;96.10;;;;;;5021285;28;20116;-76
2023/11/20 04:43:08;;;;;;;26.85;4.60;;;9.90;96.10;;;;;;5019793;28;20401;-76
2023/11/20 04:45:33;;;;;;;27.88;5.78;;;9.80;96.10;;;;;;5019759;28;20061;-76
2023/11/20 04:47:59;;;;;;;25.77;5.15;;;9.90;96.20;;;;;;5019835;28;20580;-76
2023/11/20 04:50:25;;;;;;;25.90;5.18;;;9.90;96.20;;;;;;5022692;28;20486;-75
2023/11/20 04:52:51;;;;;;;24.23;5.15;;;9.80;96.20;;;;;;5021263;28;20041;-76
2023/11/20 04:55:16;;;;;;;29.40;6.22;;;9.80;96.10;;;;;;5018942;28;20380;-76
2023/11/20 04:57:43;;;;;;;22.63;4.93;;;9.80;96.10;;;;;;5023932;28;20034;-76
2023/11/20 05:00:12;;;;;;;27.05;6.55;;;9.80;96.10;;;;;;5026549;28;20038;-76
2023/11/20 05:02:38;;;;;;;27.00;5.80;;;9.70;96.20;;;;;;5024381;28;20487;-76
2023/11/20 05:05:06;;;;;;;25.30;5.50;;;9.70;96.20;;;;;;5024966;28;20053;-76
2023/11/20 05:07:33;;;;;;;26.60;5.13;;;9.70;96.30;;;;;;5026066;28;20490;-75
2023/11/20 05:10:00;;;;;;;19.75;5.35;;;9.60;96.30;;;;;;5026171;28;20036;-75
2023/11/20 05:12:25;;;;;;;28.65;6.07;;;9.60;96.30;;;;;;5026992;28;20080;-75
2023/11/20 05:14:51;;;;;;;27.05;6.38;;;9.60;96.40;;;;;;5025247;28;20081;-76
2023/11/20 05:17:20;;;;;;;30.13;5.78;;;9.60;96.60;;;;;;5024827;28;20048;-75
2023/11/20 05:19:46;;;;;;;26.23;5.93;;;9.60;96.70;;;;;;5025541;28;20037;-74
2023/11/20 05:22:12;;;;;;;29.30;6.00;;;9.60;96.90;;;;;;5026822;28;20685;-75
2023/11/20 05:24:41;;;;;;;25.52;5.55;;;9.70;97.00;;;;;;5024352;28;20493;-75
2023/11/20 05:27:08;;;;;;;27.63;5.85;;;9.80;97.00;;;;;;5020785;28;20107;-76
2023/11/20 05:29:36;;;;;;;27.33;6.10;;;9.90;97.00;;;;;;5023186;28;20037;-76
2023/11/20 05:32:01;;;;;;;31.38;5.20;;;9.90;96.90;;;;;;5021993;28;20033;-75
2023/11/20 05:34:27;;;;;;;26.00;5.78;;;9.90;97.00;;;;;;5020880;28;20036;-75
2023/11/20 05:36:55;;;;;;;22.60;4.95;;;10.00;96.80;;;;;;5022059;28;20114;-75
2023/11/20 05:39:21;;;;;;;27.27;5.45;;;10.00;96.80;;;;;;5021145;28;20018;-75
2023/11/20 05:41:47;;;;;;;24.33;4.82;;;9.90;96.80;;;;;;5019417;28;20088;-75
2023/11/20 05:44:13;;;;;;;29.50;4.53;;;9.90;96.90;;;;;;5016329;28;20163;-75
2023/11/20 05:46:39;;;;;;;17.98;4.13;;;10.10;97.10;;;;;;5014644;28;20129;-75
2023/11/20 05:49:05;;;;;;;21.75;4.10;;;10.00;96.90;;;;;;5015812;28;20036;-76
2023/11/20 05:51:30;;;;;;;29.20;5.57;;;10.00;96.90;;;;;;5019036;28;20030;-75
2023/11/20 05:53:57;;;;;;;24.73;3.95;;;10.00;97.00;;;;;;5019625;28;20664;-76
2023/11/20 05:56:23;;;;;;;24.98;5.13;;;10.10;97.00;;;;;;5022133;28;20148;-75
2023/11/20 05:58:49;;;;;;;25.52;4.60;;;10.10;96.90;;;;;;5023242;28;20148;-76
2023/11/20 06:01:15;;;;;;;20.50;4.28;;;10.10;96.90;;;;;;5025920;28;20037;-75
2023/11/20 06:03:40;;;;;;;24.30;4.97;;;10.10;96.80;;;;;;5022659;28;20458;-76
2023/11/20 06:06:06;;;;;;;23.05;4.05;;;10.10;97.00;;;;;;5025007;28;20044;-76
2023/11/20 06:08:32;;;;;;;21.92;4.75;;;10.10;96.90;;;;;;5019728;28;20083;-75
2023/11/20 06:10:57;;;;;;;22.42;4.10;;;10.10;97.00;;;;;;5015519;28;20042;-76
2023/11/20 06:13:23;;;;;;;18.10;3.72;;;10.10;97.00;;;;;;5021154;28;20125;-76
2023/11/20 06:15:49;;;;;;;26.85;5.72;;;10.10;97.20;;;;;;5016580;28;20033;-76
2023/11/20 06:18:14;;;;;;;21.95;3.72;;;10.10;97.20;;;;;;5020292;28;20072;-76
2023/11/20 06:20:40;;;;;;;25.05;4.90;;;10.10;97.30;;;;;;5022503;28;20033;-75
2023/11/20 06:23:08;;;;;;;24.70;4.13;;;10.10;97.20;;;;;;5021032;28;20761;-75
2023/11/20 06:25:34;;;;;;;17.45;4.57;;;10.20;97.30;;;;;;5023394;28;20107;-76
2023/11/20 06:27:59;;;;;;;21.73;4.03;;;10.20;97.40;;;;;;5022829;28;20680;-76
2023/11/20 06:30:25;;;;;;;22.38;4.07;;;10.20;97.40;;;;;;5017825;28;20164;-75
2023/11/20 06:32:50;;;;;;;19.52;4.70;;;10.10;97.40;;;;;;5023379;28;20091;-75
2023/11/20 06:35:17;;;;;;;20.30;3.88;;;10.20;97.50;;;;;;5021268;28;20100;-73
2023/11/20 06:37:43;;;;;;;20.17;4.13;;;10.10;97.50;;;;;;5026201;28;20032;-74
2023/11/20 06:40:10;;;;;;;18.58;4.53;;;10.20;97.70;;;;;;5025622;28;20037;-75
2023/11/20 06:42:36;;;;;;;23.17;4.68;;;10.20;97.60;;;;;;5023463;28;20549;-73
2023/11/20 06:45:02;;;;;;;24.52;4.47;;;10.20;97.60;;;;;;5021545;28;20025;-74
2023/11/20 06:47:28;;;;;;;22.58;5.03;;;10.20;97.70;;;;;;5039565;28;20033;-73
2023/11/20 06:49:53;;;;;;;17.27;3.33;;;10.20;97.70;;;;;;5024103;28;20088;-74
2023/11/20 06:52:19;;;;;;;20.67;4.65;;;10.20;97.70;;;;;;5023797;28;20041;-74
2023/11/20 06:54:45;;;;;;;23.75;5.13;;;10.30;97.70;;;;;;5024532;28;20525;-74
2023/11/20 06:57:11;;;;;;;19.35;3.65;;;10.30;97.70;;;;;;5025190;28;20043;-74
2023/11/20 06:59:37;;;;;;;20.30;5.15;;;10.30;97.70;;;;;;5041222;28;20085;-75
2023/11/20 07:02:03;;;;;;;22.50;5.60;;;10.30;97.70;;;;;;5042551;28;20041;-75
2023/11/20 07:04:28;;;;;;;21.23;5.88;;;10.30;97.60;;;;;;5034350;28;20036;-73
2023/11/20 07:06:54;;;;;;;20.20;3.97;;;10.40;97.50;;;;;;5024664;28;20045;-74
2023/11/20 07:09:25;;;;;;;15.25;3.85;;;10.40;97.40;;;;;;5022679;28;20033;-75
2023/11/20 07:11:51;;;;;;;18.02;3.55;;;10.40;97.40;;;;;;5024472;28;20033;-73
2023/11/20 07:14:16;;;;;;;21.55;5.50;;;10.50;97.30;;;;;;5024158;28;20537;-73
2023/11/20 07:16:43;;;;;;;16.63;3.50;;;10.50;97.30;;;;;;5022322;28;20468;-74
2023/11/20 07:19:09;;;;;;;18.52;3.72;;;10.60;97.30;;;;;;5016745;28;20212;-74
2023/11/20 07:21:35;;;;;;;18.67;4.28;;;10.60;97.30;;;;;;5019163;28;20312;-74
2023/11/20 07:24:01;;;;;;;11.30;3.22;;;10.60;97.30;;;;;;5023821;28;20030;-74
2023/11/20 07:26:27;;;;;;;16.30;3.47;;;10.60;97.20;;;;;;5021844;28;20132;-74
2023/11/20 07:28:53;;;;;;;13.88;4.25;;;10.50;97.30;;;;;;5020383;28;20057;-73
2023/11/20 07:31:31;;;;;;;12.75;3.20;;;10.60;97.30;;;;;;5023125;28;20068;-74
2023/11/20 07:33:57;;;;;;;10.73;3.15;;;10.60;97.30;;;;;;5022783;28;20049;-74
2023/11/20 07:36:24;;;;;;;10.82;3.05;;;10.60;97.40;;;;;;5019156;28;20064;-73
2023/11/20 07:38:49;;;;;;;11.40;3.13;;;10.60;97.40;;;;;;5021675;28;20074;-75
2023/11/20 07:41:16;;;;;;;11.45;3.80;;;10.60;97.40;;;;;;5024006;28;20041;-72
2023/11/20 07:43:42;;;;;;;17.00;4.20;;;10.60;97.40;;;;;;5021028;28;20029;-73
2023/11/20 07:46:09;;;;;;;14.95;3.95;;;10.60;97.40;;;;;;5020396;28;20053;-74
2023/11/20 07:48:35;;;;;;;13.80;3.47;;;10.50;97.40;;;;;;5019890;28;20146;-75
2023/11/20 07:51:01;;;;;;;14.68;3.13;;;10.50;97.50;;;;;;5023200;28;20049;-74
2023/11/20 07:53:27;;;;;;;11.30;3.25;;;10.40;97.60;;;;;;5022182;28;20044;-73
2023/11/20 07:55:53;;;;;;;12.40;3.00;;;10.40;97.60;;;;;;5019933;28;20547;-73
2023/11/20 07:58:18;;;;;;;15.63;4.07;;;10.40;97.70;;;;;;5017508;28;20030;-73
2023/11/20 08:00:45;;;;;;;13.63;4.50;;;10.30;97.80;;;;;;5025693;28;20119;-73
2023/11/20 08:03:11;;;;;;;16.10;4.85;;;10.30;97.80;;;;;;5022641;28;20037;-73
2023/11/20 08:05:36;;;;;;;18.67;5.20;;;10.40;98.00;;;;;;5022735;28;20113;-72
2023/11/20 08:08:02;;;;;;;16.38;4.32;;;10.40;98.10;;;;;;5020357;28;20037;-72
2023/11/20 08:10:28;;;;;;;13.00;3.88;;;10.50;98.10;;;;;;5024689;28;20362;-73
2023/11/20 08:12:54;;;;;;;13.43;4.03;;;10.60;98.10;;;;;;5021450;28;20040;-73
2023/11/20 08:15:20;;;;;;;11.90;3.85;;;10.60;98.00;;;;;;5016078;28;20049;-75
2023/11/20 08:17:45;;;;;;;12.73;3.45;;;10.60;97.90;;;;;;5017663;28;20045;-74
2023/11/20 08:20:11;;;;;;;14.30;3.58;;;10.60;97.90;;;;;;5015777;28;20140;-74
2023/11/20 08:22:37;;;;;;;12.98;3.80;;;10.60;97.80;;;;;;5018973;28;20120;-75
2023/11/20 08:25:03;;;;;;;11.10;2.90;;;10.70;97.80;;;;;;5014610;28;20041;-73
2023/11/20 08:27:29;;;;;;;11.93;3.13;;;10.80;97.80;;;;;;5021476;28;20479;-73
2023/11/20 08:29:55;;;;;;;11.93;3.20;;;10.90;97.70;;;;;;5021154;28;20049;-73
2023/11/20 08:32:21;;;;;;;11.20;2.65;;;10.90;97.50;;;;;;5015487;28;20999;-73
2023/11/20 08:34:46;;;;;;;12.07;2.60;;;10.90;97.10;;;;;;5016980;28;20045;-73
2023/11/20 08:37:13;;;;;;;14.40;2.60;;;10.90;97.00;;;;;;5019428;28;20121;-73
2023/11/20 08:39:39;;;;;;;11.02;2.92;;;11.00;97.10;;;;;;5035129;28;20087;-74
2023/11/20 08:42:05;;;;;;;12.90;3.80;;;11.10;97.10;;;;;;5014941;28;20046;-73
2023/11/20 08:44:32;;;;;;;10.30;3.72;;;11.10;97.10;;;;;;5020383;28;20108;-74
2023/11/20 08:46:59;;;;;;;12.63;3.85;;;11.10;96.90;;;;;;5015965;28;20057;-75
2023/11/20 08:49:26;;;;;;;11.27;3.55;;;11.20;96.90;;;;;;5021014;28;20116;-73
2023/11/20 08:51:52;;;;;;;11.32;3.15;;;11.30;96.70;;;;;;5019474;28;20025;-72
2023/11/20 08:54:18;;;;;;;13.25;3.33;;;11.40;96.60;;;;;;5021230;28;20025;-74
2023/11/20 08:56:46;;;;;;;9.85;3.30;;;11.30;96.50;;;;;;5010494;28;20041;-74
2023/11/20 08:59:12;;;;;;;12.77;3.80;;;11.40;96.50;;;;;;5019427;28;20021;-74
2023/11/20 09:01:38;;;;;;;9.60;3.22;;;11.30;96.20;;;;;;5016981;28;20471;-74
2023/11/20 09:04:04;;;;;;;18.30;4.15;;;11.30;96.20;;;;;;5020057;28;20019;-72
2023/11/20 09:06:31;;;;;;;13.13;3.75;;;11.20;96.20;;;;;;5019031;28;20470;-73
2023/11/20 09:08:57;;;;;;;11.35;3.58;;;11.10;96.30;;;;;;5021177;28;20028;-73
2023/11/20 09:11:23;;;;;;;13.27;3.45;;;11.10;96.40;;;;;;5017913;28;20540;-75
2023/11/20 09:13:51;;;;;;;12.43;3.17;;;11.10;96.40;;;;;;5016994;28;20028;-74
2023/11/20 09:16:18;;;;;;;13.90;3.90;;;11.00;96.60;;;;;;5015084;28;20096;-74
2023/11/20 09:18:43;;;;;;;12.50;4.03;;;11.00;96.70;;;;;;5015722;28;20033;-72
2023/11/20 09:21:09;;;;;;;16.58;4.10;;;11.00;96.80;;;;;;5018695;28;20378;-74
2023/11/20 09:23:35;;;;;;;13.52;3.38;;;11.00;96.90;;;;;;5019427;28;20722;-74
2023/11/20 09:26:02;;;;;;;16.25;4.82;;;11.10;97.10;;;;;;5025330;28;20042;-73
2023/11/20 09:28:28;;;;;;;15.63;4.15;;;11.20;97.30;;;;;;5019304;28;20041;-73
2023/11/20 09:30:54;;;;;;;17.77;4.22;;;11.20;97.20;;;;;;5017670;28;20116;-73
2023/11/20 09:33:20;;;;;;;17.95;5.32;;;11.20;97.00;;;;;;5014291;28;20371;-73
2023/11/20 09:35:45;;;;;;;14.27;4.28;;;11.40;97.30;;;;;;5016515;28;20119;-75
2023/11/20 09:38:11;;;;;;;17.58;4.10;;;11.50;97.40;;;;;;5012998;28;20078;-74
2023/11/20 09:40:37;;;;;;;16.85;4.57;;;11.70;97.30;;;;;;5016068;28;20045;-75
2023/11/20 09:43:06;;;;;;;14.75;3.30;;;11.90;96.90;;;;;;5014849;28;20479;-74
2023/11/20 09:45:34;;;;;;;14.98;3.85;;;11.90;96.20;;;;;;5020785;28;20569;-74
2023/11/20 09:48:00;;;;;;;16.65;4.80;;;11.80;95.60;;;;;;5022903;28;20458;-74
2023/11/20 09:50:28;;;;;;;13.88;4.22;;;11.80;95.50;;;;;;5022506;28;20041;-74
2023/11/20 09:52:57;;;;;;;12.68;5.18;;;11.90;95.40;;;;;;5017803;28;20025;-74
2023/11/20 09:55:23;;;;;;;18.30;4.63;;;11.70;95.10;;;;;;5019414;28;20037;-74
2023/11/20 09:57:50;;;;;;;11.63;4.63;;;11.70;95.10;;;;;;5023451;28;20113;-74
2023/11/20 10:00:17;;;;;;;11.98;4.43;;;11.60;95.30;;;;;;5022311;28;20049;-75
2023/11/20 10:02:46;;;;;;;13.43;4.32;;;11.60;95.30;;;;;;5020767;28;20050;-74
2023/11/20 10:05:28;;;;;;;16.23;4.32;;;11.50;95.20;;;;;;5022078;28;20122;-75
2023/11/20 10:07:58;;;;;;;15.90;5.20;;;11.50;95.50;;;;;;5020111;28;20095;-75
2023/11/20 10:10:25;;;;;;;14.73;5.72;;;11.50;95.50;;;;;;5018626;28;20092;-74
2023/11/20 10:12:51;;;;;;;12.85;5.20;;;11.40;95.60;;;;;;5015704;28;20029;-75
2023/11/20 10:15:21;;;;;;;18.20;5.60;;;11.40;95.70;;;;;;5019790;28;20061;-74
2023/11/20 10:17:47;;;;;;;21.63;10.80;;;11.40;95.70;;;;;;5016147;28;20037;-75
2023/11/20 10:20:14;;;;;;;29.08;13.20;;;11.40;95.90;;;;;;5018628;28;20036;-74
2023/11/20 10:22:40;;;;;;;49.85;27.10;;;11.40;95.90;;;;;;5019150;28;20124;-74
2023/11/20 10:25:08;;;;;;;27.42;14.15;;;11.40;96.00;;;;;;5019565;28;20348;-75
2023/11/20 10:27:34;;;;;;;16.30;6.72;;;11.40;96.00;;;;;;5021226;28;20045;-75
2023/11/20 10:30:00;;;;;;;23.25;9.85;;;11.40;96.00;;;;;;5022984;28;20037;-75
2023/11/20 10:32:27;;;;;;;38.17;23.20;;;11.40;96.00;;;;;;5017358;28;20178;-73
2023/11/20 10:35:15;;;;;;;24.35;12.82;;;11.40;96.10;;;;;;5021593;28;20041;-74
2023/11/20 10:37:52;;;;;;;36.33;23.05;;;11.40;96.10;;;;;;5020943;28;20214;-76
2023/11/20 10:40:18;;;;;;;26.00;11.55;;;11.40;96.10;;;;;;5021672;28;20034;-76
2023/11/20 10:42:44;;;;;;;22.50;11.90;;;11.30;96.10;;;;;;5021307;28;20036;-73
2023/11/20 10:45:11;;;;;;;20.67;9.68;;;11.30;96.20;;;;;;5021459;28;20041;-75
2023/11/20 10:47:38;;;;;;;20.92;10.05;;;11.30;96.30;;;;;;5021623;28;20064;-75
2023/11/20 10:50:05;;;;;;;21.48;10.20;;;11.40;96.30;;;;;;5020685;28;20033;-74
2023/11/20 10:52:32;;;;;;;26.05;14.23;;;11.30;96.30;;;;;;5017928;28;20033;-74
2023/11/20 10:55:01;;;;;;;47.42;28.13;;;11.40;96.40;;;;;;5020139;28;20052;-74
2023/11/20 10:57:28;;;;;;;50.25;29.58;;;11.40;96.40;;;;;;5019333;28;20064;-74
2023/11/20 10:59:56;;;;;;;39.30;25.88;;;11.30;96.20;;;;;;5021430;28;20041;-74
2023/11/20 11:02:23;;;;;;;21.77;14.75;;;11.30;96.30;;;;;;5017746;28;20029;-73
2023/11/20 11:04:52;;;;;;;18.08;8.43;;;11.30;96.20;;;;;;5020301;28;20091;-73
2023/11/20 11:07:22;;;;;;;15.70;7.30;;;11.30;96.40;;;;;;5017022;28;20129;-74
2023/11/20 11:09:49;;;;;;;19.88;7.10;;;11.20;96.20;;;;;;5021855;28;20145;-75
2023/11/20 11:12:15;;;;;;;16.45;6.45;;;11.30;96.40;;;;;;5019855;28;20040;-76
2023/11/20 11:14:41;;;;;;;19.08;7.28;;;11.40;96.40;;;;;;5020873;28;20038;-77
2023/11/20 11:17:10;;;;;;;18.30;7.72;;;11.40;96.30;;;;;;5022152;28;20172;-74
2023/11/20 11:19:39;;;;;;;20.50;8.65;;;11.40;96.20;;;;;;5017068;28;20062;-74
2023/11/20 11:22:13;;;;;;;18.42;6.65;;;11.40;96.20;;;;;;5020322;28;20041;-76
2023/11/20 11:24:43;;;;;;;25.33;12.00;;;11.30;96.00;;;;;;5021846;28;20025;-74
2023/11/20 11:27:35;;;;;;;18.20;7.03;;;11.30;96.20;;;;;;5018167;28;20038;-73
2023/11/20 11:30:07;;;;;;;21.38;8.43;;;11.20;96.20;;;;;;5019390;28;20053;-74
2023/11/20 11:32:47;;;;;;;18.30;6.22;;;11.20;96.40;;;;;;5015851;28;20041;-74
2023/11/20 11:35:39;;;;;;;17.08;5.30;;;11.10;96.40;;;;;;5016558;28;20565;-74
2023/11/20 11:38:22;;;;;;;20.20;6.25;;;11.10;96.50;;;;;;5013014;28;20049;-73
2023/11/20 11:40:51;;;;;;;15.90;6.63;;;11.10;96.50;;;;;;5014941;28;20037;-75
2023/11/20 11:43:31;;;;;;;17.25;5.57;;;11.10;96.60;;;;;;5012810;28;20037;-74
2023/11/20 11:46:03;;;;;;;17.85;5.63;;;11.10;96.70;;;;;;5011355;28;20077;-76
2023/11/20 11:48:36;;;;;;;19.02;6.57;;;11.10;96.70;;;;;;5011289;28;20581;-73
2023/11/20 11:51:05;;;;;;;18.25;6.10;;;11.10;96.80;;;;;;5014503;28;20129;-74
2023/11/20 11:53:31;;;;;;;17.50;5.72;;;11.10;96.60;;;;;;5021942;28;20033;-74
2023/11/20 11:56:03;;;;;;;16.50;5.47;;;11.00;96.70;;;;;;5019875;28;20512;-74
2023/11/20 11:58:31;;;;;;;15.38;5.30;;;11.10;96.70;;;;;;5018380;28;20064;-75
2023/11/20 12:01:15;;;;;;;16.65;5.20;;;11.00;96.70;;;;;;5014293;28;20033;-74
2023/11/20 12:03:40;;;;;;;15.27;4.72;;;11.00;96.60;;;;;;5012361;28;20037;-75
2023/11/20 12:06:13;;;;;;;16.35;4.68;;;11.00;96.60;;;;;;5018128;28;20045;-73
2023/11/20 12:08:39;;;;;;;16.13;4.80;;;11.00;96.70;;;;;;5012080;28;20030;-73
2023/11/20 12:11:05;;;;;;;19.80;4.97;;;10.90;96.60;;;;;;5015339;28;20044;-74
2023/11/20 12:13:31;;;;;;;13.52;4.70;;;11.00;96.80;;;;;;5016242;28;20044;-73
2023/11/20 12:16:06;;;;;;;17.38;4.78;;;11.00;96.80;;;;;;5010752;28;20099;-73
2023/11/20 12:18:33;;;;;;;14.48;4.45;;;10.90;96.70;;;;;;5013724;28;20041;-74
2023/11/20 12:21:07;;;;;;;15.90;4.57;;;10.90;96.80;;;;;;5014095;28;20101;-74
2023/11/20 12:23:33;;;;;;;20.75;5.60;;;10.90;96.80;;;;;;5008136;28;20036;-74
2023/11/20 12:26:04;;;;;;;20.25;4.57;;;10.80;96.90;;;;;;5007913;28;20045;-73
2023/11/20 12:28:32;;;;;;;15.63;4.95;;;10.90;96.90;;;;;;5011345;28;20033;-74
2023/11/20 12:31:00;;;;;;;14.73;4.82;;;10.80;96.90;;;;;;5008850;28;20033;-74
2023/11/20 12:33:26;;;;;;;16.00;4.07;;;10.80;97.00;;;;;;5016147;28;20847;-72
2023/11/20 12:35:55;;;;;;;14.65;4.35;;;10.80;97.10;;;;;;5016070;28;20042;-73
2023/11/20 12:38:21;;;;;;;15.85;5.47;;;10.80;97.10;;;;;;5020938;28;20083;-75